Time;durP1;ratioP1;P1;durP2;ratioP2;P2;SDS_P1;SDS_P2;PMS_P1;PMS_P2;Temp;Humidity;BMP_temperature;BMP_pressure;BME280_temperature;BME280_humidity;BME280_pressure;Samples;Min_cycle;Max_cycle;Signal;HPM_P1;HPM_P2
2023/03/25 00:00:23;;;;;;;1.25;1.15;;;18.10;76.80;;;;;;5032010;28;20698;-64
2023/03/25 00:03:11;;;;;;;2.15;1.10;;;18.10;76.90;;;;;;5032302;28;20238;-65
2023/03/25 00:06:00;;;;;;;2.10;1.10;;;18.10;76.90;;;;;;5032421;28;20209;-64
2023/03/25 00:08:49;;;;;;;2.53;1.30;;;18.00;76.70;;;;;;5031816;28;20365;-65
2023/03/25 00:11:38;;;;;;;1.80;1.13;;;18.10;76.90;;;;;;5032190;28;20201;-65
2023/03/25 00:14:26;;;;;;;1.05;1.00;;;18.10;76.90;;;;;;5031878;28;20285;-64
2023/03/25 00:17:16;;;;;;;3.90;1.20;;;18.10;76.70;;;;;;5031546;28;20222;-64
2023/03/25 00:20:10;;;;;;;1.65;1.20;;;18.00;76.80;;;;;;5031711;28;20248;-65
2023/03/25 00:22:58;;;;;;;1.20;1.05;;;18.10;77.00;;;;;;5030972;28;20198;-64
2023/03/25 00:25:48;;;;;;;2.03;0.93;;;18.10;76.60;;;;;;5031139;28;20256;-65
2023/03/25 00:28:38;;;;;;;1.48;1.00;;;18.00;76.60;;;;;;5031750;28;20264;-65
2023/03/25 00:31:26;;;;;;;1.13;1.00;;;18.00;76.50;;;;;;5031049;28;20356;-65
2023/03/25 00:34:14;;;;;;;1.25;1.00;;;18.00;76.70;;;;;;5032226;28;20264;-65
2023/03/25 00:37:02;;;;;;;1.40;1.10;;;18.00;76.80;;;;;;5030857;28;20272;-65
2023/03/25 00:39:50;;;;;;;2.50;1.00;;;17.90;76.60;;;;;;5031626;28;20333;-64
2023/03/25 00:42:43;;;;;;;1.10;0.90;;;17.90;76.80;;;;;;5030638;28;20581;-65
2023/03/25 00:45:32;;;;;;;0.80;0.80;;;17.90;76.80;;;;;;5031475;28;20204;-64
2023/03/25 00:48:20;;;;;;;1.15;0.90;;;17.90;76.80;;;;;;5031882;28;20253;-64
2023/03/25 00:51:08;;;;;;;1.10;1.00;;;17.90;77.10;;;;;;5031460;28;20209;-64
2023/03/25 00:54:00;;;;;;;2.10;1.10;;;18.00;76.90;;;;;;5031282;28;20202;-64
2023/03/25 00:56:48;;;;;;;1.15;1.05;;;18.00;76.80;;;;;;5031126;28;20690;-64
2023/03/25 00:59:37;;;;;;;1.13;0.95;;;17.90;76.80;;;;;;5030552;28;20190;-64
2023/03/25 01:02:26;;;;;;;2.85;1.10;;;17.90;76.80;;;;;;5030514;28;20305;-65
2023/03/25 01:05:14;;;;;;;1.00;0.90;;;17.90;76.80;;;;;;5031136;28;20615;-64
2023/03/25 01:08:02;;;;;;;0.85;0.80;;;17.90;76.80;;;;;;5031104;28;20228;-64
2023/03/25 01:10:51;;;;;;;1.52;0.90;;;18.00;77.00;;;;;;5030778;28;20679;-65
2023/03/25 01:13:39;;;;;;;1.60;1.17;;;17.90;76.80;;;;;;5030845;28;20755;-65
2023/03/25 01:16:29;;;;;;;1.25;1.15;;;17.90;76.80;;;;;;5033097;28;20328;-65
2023/03/25 01:19:17;;;;;;;1.80;1.10;;;17.90;76.80;;;;;;5034384;28;20221;-64
2023/03/25 01:22:05;;;;;;;1.15;1.00;;;17.90;76.80;;;;;;5034437;28;20239;-65
2023/03/25 01:24:53;;;;;;;1.02;0.93;;;18.00;77.00;;;;;;5034978;28;20206;-65
2023/03/25 01:27:41;;;;;;;1.10;0.90;;;18.00;76.90;;;;;;5034210;28;20229;-64
2023/03/25 01:30:29;;;;;;;0.98;0.90;;;18.00;76.70;;;;;;5034588;28;20289;-64
2023/03/25 01:33:20;;;;;;;1.38;0.90;;;18.00;76.50;;;;;;5034139;28;20202;-64
2023/03/25 01:36:09;;;;;;;1.13;0.90;;;17.80;87.40;;;;;;5034711;28;20570;-64
2023/03/25 01:38:58;;;;;;;0.70;0.70;;;17.90;76.30;;;;;;5035522;28;20201;-65
2023/03/25 01:41:49;;;;;;;1.75;1.27;;;17.90;76.60;;;;;;5034192;28;20260;-65
2023/03/25 01:45:10;;;;;;;1.52;0.90;;;17.90;76.60;;;;;;5034063;28;20201;-64
2023/03/25 01:48:06;;;;;;;1.10;1.00;;;17.90;76.60;;;;;;5034779;28;20226;-65
2023/03/25 01:50:59;;;;;;;1.58;1.02;;;17.80;76.60;;;;;;5034840;28;20202;-64
2023/03/25 01:53:48;;;;;;;1.35;1.00;;;17.80;76.70;;;;;;5034408;28;20244;-64
2023/03/25 01:56:41;;;;;;;0.80;0.80;;;17.80;76.70;;;;;;5035265;28;20288;-64
2023/03/25 01:59:29;;;;;;;0.82;0.82;;;17.70;76.60;;;;;;5034522;28;20201;-64
2023/03/25 02:02:18;;;;;;;1.48;1.13;;;17.90;76.80;;;;;;5013738;28;20713;-64
2023/03/25 02:05:10;;;;;;;0.80;0.80;;;17.90;76.90;;;;;;5015176;28;20209;-64
2023/03/25 02:08:02;;;;;;;1.02;0.90;;;17.90;76.90;;;;;;5015501;28;20368;-64
2023/03/25 02:10:51;;;;;;;1.00;0.90;;;17.90;76.90;;;;;;5032467;28;20279;-64
2023/03/25 02:13:41;;;;;;;1.27;0.90;;;17.90;76.90;;;;;;5032762;28;20230;-65
2023/03/25 02:16:35;;;;;;;2.25;1.10;;;17.90;76.90;;;;;;5033351;28;20312;-65
2023/03/25 02:20:04;;;;;;;1.17;1.02;;;18.60;77.60;;;;;;5033558;28;20191;-65
2023/03/25 02:23:30;;;;;;;0.82;0.82;;;17.90;77.00;;;;;;5032441;28;20205;-64
2023/03/25 02:26:41;;;;;;;1.33;1.00;;;17.80;91.50;;;;;;5033643;28;20686;-64
2023/03/25 02:29:48;;;;;;;0.80;0.80;;;17.90;76.90;;;;;;5033764;28;20311;-64
2023/03/25 02:33:09;;;;;;;3.63;0.90;;;17.90;76.90;;;;;;5032216;28;20194;-64
2023/03/25 02:36:29;;;;;;;2.58;0.77;;;17.90;76.80;;;;;;5033061;28;20194;-64
2023/03/25 02:39:23;;;;;;;1.80;1.27;;;18.00;76.80;;;;;;5031929;28;20287;-65
2023/03/25 02:42:17;;;;;;;1.25;1.00;;;18.00;76.80;;;;;;5033310;28;20679;-64
2023/03/25 02:45:10;;;;;;;0.90;0.80;;;18.00;76.80;;;;;;5033542;28;20205;-64
2023/03/25 02:48:02;;;;;;;2.92;1.10;;;18.00;76.20;;;;;;5032354;28;20222;-64
2023/03/25 02:50:53;;;;;;;1.45;1.13;;;18.00;76.60;;;;;;5033372;28;20280;-64
2023/03/25 02:53:43;;;;;;;1.45;1.00;;;18.00;76.50;;;;;;5032788;28;20202;-65
2023/03/25 02:56:33;;;;;;;1.15;0.98;;;18.00;76.50;;;;;;5032168;28;20222;-64
2023/03/25 02:59:21;;;;;;;1.05;0.90;;;18.00;76.50;;;;;;5033606;28;20248;-65
2023/03/25 03:02:10;;;;;;;1.30;0.80;;;18.00;76.60;;;;;;5032925;28;20203;-64
2023/03/25 03:04:58;;;;;;;1.30;0.90;;;17.90;76.50;;;;;;5033430;28;20198;-64
2023/03/25 03:07:51;;;;;;;1.10;0.98;;;17.90;76.80;;;;;;5032677;28;20229;-64
2023/03/25 03:10:45;;;;;;;1.17;0.90;;;17.90;77.00;;;;;;5032672;28;20209;-64
2023/03/25 03:13:49;;;;;;;2.97;0.90;;;17.90;77.10;;;;;;5032413;28;20701;-64
2023/03/25 03:16:48;;;;;;;0.88;0.80;;;17.90;77.20;;;;;;5031868;28;20225;-64
2023/03/25 03:19:45;;;;;;;1.40;0.85;;;18.00;77.40;;;;;;5032309;28;20283;-64
2023/03/25 03:22:39;;;;;;;2.58;1.17;;;17.90;77.40;;;;;;5032613;28;20280;-64
2023/03/25 03:25:30;;;;;;;0.80;0.80;;;17.90;77.60;;;;;;5033384;28;20285;-64
2023/03/25 03:28:27;;;;;;;1.15;0.90;;;17.90;77.70;;;;;;5034347;28;20700;-64
2023/03/25 03:31:23;;;;;;;0.93;0.85;;;17.90;77.90;;;;;;5033980;28;20300;-64
2023/03/25 03:34:35;;;;;;;0.90;0.80;;;17.90;78.10;;;;;;5032157;28;20199;-65
2023/03/25 03:37:29;;;;;;;1.35;0.80;;;17.90;78.00;;;;;;5032148;28;20222;-64
2023/03/25 03:40:20;;;;;;;1.05;0.82;;;17.90;78.20;;;;;;5045147;28;20194;-65
2023/03/25 03:43:13;;;;;;;1.00;0.90;;;17.90;78.10;;;;;;5042341;28;20295;-65
2023/03/25 03:46:05;;;;;;;1.55;0.80;;;17.90;78.10;;;;;;5045310;28;20208;-65
2023/03/25 03:48:57;;;;;;;2.25;0.88;;;17.90;78.10;;;;;;5034851;28;20645;-64
2023/03/25 03:51:48;;;;;;;1.73;0.93;;;17.90;78.10;;;;;;5032866;28;20198;-64
2023/03/25 03:54:41;;;;;;;1.90;0.90;;;17.90;78.10;;;;;;5032325;28;20644;-66
2023/03/25 03:57:34;;;;;;;2.97;0.80;;;17.90;78.00;;;;;;5031962;28;20222;-64
2023/03/25 04:00:26;;;;;;;0.90;0.80;;;17.90;78.10;;;;;;5031492;28;20206;-64
2023/03/25 04:03:16;;;;;;;0.70;0.70;;;17.90;78.00;;;;;;5031778;28;20675;-65
2023/03/25 04:06:13;;;;;;;1.20;1.08;;;17.90;78.00;;;;;;5032081;28;20206;-64
2023/03/25 04:09:08;;;;;;;1.27;0.70;;;17.90;78.20;;;;;;5031918;28;20222;-64
2023/03/25 04:12:00;;;;;;;1.55;0.95;;;17.90;78.20;;;;;;5032697;28;20205;-64
2023/03/25 04:14:48;;;;;;;0.80;0.80;;;17.80;78.20;;;;;;5032579;28;20198;-65
2023/03/25 04:17:36;;;;;;;1.15;1.00;;;17.80;78.30;;;;;;5031906;28;20617;-64
2023/03/25 04:20:28;;;;;;;1.45;0.85;;;17.80;78.30;;;;;;5032450;28;20694;-65
2023/03/25 04:23:18;;;;;;;2.30;0.88;;;17.80;78.30;;;;;;5031388;28;20284;-65
2023/03/25 04:26:07;;;;;;;1.20;0.95;;;;;;;;;;5031867;28;20297;-65
2023/03/25 04:28:58;;;;;;;1.10;0.80;;;17.80;77.50;;;;;;5032361;28;20197;-64
2023/03/25 04:31:49;;;;;;;0.98;0.80;;;17.80;78.10;;;;;;5031503;28;20206;-64
2023/03/25 04:34:37;;;;;;;1.00;0.90;;;17.80;78.20;;;;;;5031591;28;20202;-64
2023/03/25 04:37:26;;;;;;;0.90;0.80;;;17.80;78.10;;;;;;5031358;28;20309;-65
2023/03/25 04:40:17;;;;;;;0.70;0.68;;;17.80;78.00;;;;;;5031811;28;20244;-64
2023/03/25 04:43:06;;;;;;;1.58;0.90;;;17.80;78.10;;;;;;5031617;28;20202;-64
2023/03/25 04:45:54;;;;;;;1.42;0.98;;;17.80;77.90;;;;;;5031658;28;20202;-64
2023/03/25 04:48:44;;;;;;;1.02;0.93;;;17.80;77.90;;;;;;5032214;28;20206;-64
2023/03/25 04:51:33;;;;;;;0.98;0.65;;;17.80;77.70;;;;;;5034895;28;20589;-65
2023/03/25 04:54:22;;;;;;;2.00;0.93;;;17.80;77.60;;;;;;5034848;28;20280;-64
2023/03/25 04:57:11;;;;;;;0.98;0.80;;;17.80;77.80;;;;;;5036316;28;20210;-64
2023/03/25 04:59:59;;;;;;;1.55;0.70;;;17.90;77.60;;;;;;5035789;28;20204;-64
2023/03/25 05:02:50;;;;;;;3.22;0.85;;;17.90;77.60;;;;;;5035131;28;20202;-64
2023/03/25 05:05:39;;;;;;;0.70;0.70;;;17.90;77.50;;;;;;5035539;28;20498;-64
2023/03/25 05:08:27;;;;;;;1.15;0.80;;;17.90;76.80;;;;;;5035186;28;20261;-65
2023/03/25 05:11:15;;;;;;;1.25;0.75;;;17.90;77.30;;;;;;5035038;28;20214;-65
2023/03/25 05:14:04;;;;;;;1.40;0.60;;;17.90;77.20;;;;;;5034794;28;20663;-64
2023/03/25 05:16:54;;;;;;;1.85;0.90;;;17.90;77.00;;;;;;5034653;28;20315;-64
2023/03/25 05:19:43;;;;;;;2.33;1.17;;;17.90;77.10;;;;;;5077573;22;20660;-65
2023/03/25 05:22:31;;;;;;;2.92;1.00;;;17.90;76.90;;;;;;5055198;28;20284;-68
2023/03/25 05:25:20;;;;;;;1.33;1.23;;;17.90;76.80;;;;;;5056546;28;20284;-66
2023/03/25 05:28:12;;;;;;;0.82;0.80;;;17.90;76.70;;;;;;5055930;28;20256;-66
2023/03/25 05:31:07;;;;;;;1.38;0.80;;;17.80;76.90;;;;;;5056465;28;20711;-70
2023/03/25 05:33:55;;;;;;;1.75;0.90;;;17.80;76.90;;;;;;5056442;28;20197;-68
2023/03/25 05:36:43;;;;;;;0.65;0.65;;;17.80;77.00;;;;;;5056518;28;20204;-68
2023/03/25 05:39:31;;;;;;;1.25;0.80;;;17.80;77.10;;;;;;5056667;28;20217;-68
2023/03/25 05:42:21;;;;;;;1.60;0.70;;;17.80;77.10;;;;;;5056383;28;20288;-69
2023/03/25 05:45:10;;;;;;;0.82;0.60;;;17.80;76.90;;;;;;5056211;28;20250;-65
2023/03/25 05:48:00;;;;;;;2.78;0.90;;;17.80;76.80;;;;;;5055520;28;20391;-67
2023/03/25 05:50:48;;;;;;;2.15;0.70;;;17.80;76.90;;;;;;5055367;28;20221;-67
2023/03/25 05:53:36;;;;;;;1.55;0.77;;;17.80;76.90;;;;;;5054436;28;20668;-67
2023/03/25 05:56:24;;;;;;;2.25;1.08;;;17.80;76.90;;;;;;5055563;28;20201;-68
2023/03/25 05:59:13;;;;;;;2.45;1.13;;;17.80;76.90;;;;;;5054964;28;20217;-68
2023/03/25 06:02:01;;;;;;;0.75;0.75;;;17.80;76.90;;;;;;5053738;28;20569;-67
2023/03/25 06:04:51;;;;;;;0.90;0.68;;;17.80;77.30;;;;;;5055222;28;20205;-67
2023/03/25 06:07:41;;;;;;;1.30;0.70;;;17.60;88.60;;;;;;5055383;28;20339;-67
2023/03/25 06:10:29;;;;;;;1.10;0.70;;;17.80;77.10;;;;;;5056021;28;20217;-67
2023/03/25 06:13:17;;;;;;;1.00;0.75;;;17.80;77.00;;;;;;5055026;28;20200;-70
2023/03/25 06:16:08;;;;;;;1.08;0.82;;;17.80;77.00;;;;;;5054743;28;20271;-67
2023/03/25 06:18:58;;;;;;;0.73;0.65;;;17.80;77.20;;;;;;5054654;28;20286;-68
2023/03/25 06:21:50;;;;;;;3.00;0.90;;;17.80;77.10;;;;;;5054134;28;20347;-66
2023/03/25 06:24:39;;;;;;;1.92;0.70;;;17.90;77.80;;;;;;5054156;28;20198;-68
2023/03/25 06:27:27;;;;;;;1.83;0.65;;;17.90;77.10;;;;;;5053468;28;20744;-69
2023/03/25 06:30:18;;;;;;;0.63;0.63;;;17.90;77.10;;;;;;5054030;28;20249;-68
2023/03/25 06:33:06;;;;;;;1.05;0.95;;;17.90;77.10;;;;;;5054240;28;20231;-67
2023/03/25 06:35:54;;;;;;;0.85;0.70;;;17.90;77.00;;;;;;5054486;28;20282;-68
2023/03/25 06:38:44;;;;;;;1.15;0.70;;;17.90;77.20;;;;;;5053672;28;20225;-67
2023/03/25 06:41:34;;;;;;;0.70;0.70;;;17.80;77.30;;;;;;5053101;28;20194;-67
2023/03/25 06:44:22;;;;;;;1.35;0.65;;;17.80;77.30;;;;;;5053978;28;20227;-68
2023/03/25 06:47:11;;;;;;;1.13;0.70;;;17.70;77.30;;;;;;5055055;28;20209;-68
2023/03/25 06:50:00;;;;;;;1.20;0.63;;;17.80;77.30;;;;;;5054310;28;20205;-69
2023/03/25 06:52:48;;;;;;;3.75;0.85;;;17.80;77.20;;;;;;5054241;28;20205;-68
2023/03/25 06:55:38;;;;;;;0.80;0.80;;;17.80;77.30;;;;;;5054244;28;20200;-68
2023/03/25 06:58:33;;;;;;;2.20;0.70;;;17.80;77.40;;;;;;5037270;28;20214;-68
2023/03/25 07:01:21;;;;;;;0.90;0.80;;;17.80;77.40;;;;;;5036660;28;20194;-68
2023/03/25 07:04:09;;;;;;;1.02;0.60;;;17.80;77.60;;;;;;5054654;28;20578;-69
2023/03/25 07:06:57;;;;;;;0.88;0.68;;;17.80;77.30;;;;;;5054241;28;20280;-68
2023/03/25 07:09:50;;;;;;;1.33;0.55;;;17.80;77.20;;;;;;5053581;28;20658;-69
2023/03/25 07:12:39;;;;;;;2.42;0.75;;;17.80;76.90;;;;;;5053360;28;20320;-68
2023/03/25 07:15:27;;;;;;;1.50;0.60;;;17.80;76.90;;;;;;5054344;28;20285;-69
2023/03/25 07:18:15;;;;;;;0.70;0.70;;;17.80;77.00;;;;;;5053112;28;20315;-68
2023/03/25 07:21:04;;;;;;;2.28;0.75;;;17.90;77.00;;;;;;5052637;28;20193;-69
2023/03/25 07:23:53;;;;;;;1.40;0.90;;;17.90;76.70;;;;;;5052279;28;20686;-67
2023/03/25 07:26:41;;;;;;;1.38;0.73;;;17.90;76.50;;;;;;5053502;28;20691;-68
2023/03/25 07:29:30;;;;;;;0.80;0.80;;;18.00;76.30;;;;;;5052999;28;20303;-68
2023/03/25 07:32:19;;;;;;;1.65;0.80;;;17.90;76.00;;;;;;5053042;28;20681;-68
2023/03/25 07:35:09;;;;;;;1.17;0.95;;;18.00;76.10;;;;;;5053369;28;20205;-69
2023/03/25 07:37:57;;;;;;;0.90;0.80;;;18.00;76.10;;;;;;5052545;28;20632;-70
2023/03/25 07:40:45;;;;;;;0.70;0.70;;;17.90;75.80;;;;;;5052780;28;20256;-71
2023/03/25 07:43:37;;;;;;;1.15;0.60;;;17.90;75.50;;;;;;5053082;28;20197;-71
2023/03/25 07:46:26;;;;;;;1.02;0.68;;;17.90;75.60;;;;;;5053448;28;20197;-70
2023/03/25 07:49:15;;;;;;;0.68;0.57;;;17.90;75.70;;;;;;5053098;28;20249;-71
2023/03/25 07:52:03;;;;;;;1.25;0.70;;;17.90;75.50;;;;;;5052611;28;20301;-68
2023/03/25 07:54:51;;;;;;;1.35;0.68;;;17.90;75.10;;;;;;5052682;28;20221;-69
2023/03/25 07:57:40;;;;;;;0.70;0.70;;;17.80;87.00;;;;;;5052332;28;20281;-73
2023/03/25 08:00:29;;;;;;;0.80;0.70;;;17.90;75.70;;;;;;5052790;28;20205;-68
2023/03/25 08:03:19;;;;;;;1.40;0.80;;;18.00;75.80;;;;;;5051498;28;20198;-68
2023/03/25 08:06:08;;;;;;;0.98;0.60;;;18.00;74.80;;;;;;5052144;28;20237;-67
2023/03/25 08:08:56;;;;;;;1.23;1.00;;;18.00;74.80;;;;;;5052675;28;20213;-66
2023/03/25 08:11:44;;;;;;;0.85;0.73;;;18.00;74.90;;;;;;5052794;28;20225;-67
2023/03/25 08:14:32;;;;;;;0.60;0.60;;;17.90;74.80;;;;;;5052620;28;20233;-68
2023/03/25 08:17:20;;;;;;;1.67;0.70;;;17.90;74.80;;;;;;5051987;28;20247;-68
2023/03/25 08:20:11;;;;;;;0.60;0.60;;;18.00;74.80;;;;;;5052382;28;20290;-68
2023/03/25 08:22:59;;;;;;;1.63;0.98;;;18.00;75.30;;;;;;5050879;28;20205;-67
2023/03/25 08:25:48;;;;;;;0.95;0.70;;;18.00;75.20;;;;;;5050959;28;20216;-69
2023/03/25 08:28:37;;;;;;;0.60;0.60;;;18.00;75.30;;;;;;5050641;28;20643;-69
2023/03/25 08:31:29;;;;;;;2.35;0.70;;;18.00;74.90;;;;;;5052126;28;20356;-68
2023/03/25 08:34:19;;;;;;;0.50;0.50;;;18.10;75.20;;;;;;5051792;28;20201;-71
2023/03/25 08:37:08;;;;;;;0.70;0.70;;;18.10;75.40;;;;;;5051593;28;20660;-72
2023/03/25 08:39:56;;;;;;;4.50;1.63;;;18.10;74.40;;;;;;5052250;28;20221;-69
2023/03/25 08:42:45;;;;;;;7.20;1.75;;;18.10;74.60;;;;;;5051453;28;20673;-67
2023/03/25 08:45:34;;;;;;;1.20;0.70;;;18.20;74.30;;;;;;5050842;28;20200;-69
2023/03/25 08:48:23;;;;;;;0.70;0.70;;;18.20;74.00;;;;;;5051447;28;20303;-67
2023/03/25 08:51:11;;;;;;;1.48;0.60;;;18.10;74.20;;;;;;5050775;28;20221;-72
2023/03/25 08:54:01;;;;;;;3.25;0.60;;;18.10;73.40;;;;;;5051639;28;20340;-69
2023/03/25 08:56:49;;;;;;;58.85;6.68;;;18.20;74.20;;;;;;5046857;28;20273;-70
2023/03/25 08:59:37;;;;;;;10.80;1.60;;;18.10;74.30;;;;;;5031939;28;20589;-73
2023/03/25 09:02:25;;;;;;;7.88;1.45;;;18.10;73.40;;;;;;5023179;28;20272;-70
2023/03/25 09:05:14;;;;;;;2.83;0.80;;;18.10;73.10;;;;;;5031001;28;20637;-71
2023/03/25 09:08:03;;;;;;;3.38;0.88;;;18.10;74.00;;;;;;5032615;28;20228;-69
2023/03/25 09:10:54;;;;;;;4.45;0.90;;;18.10;73.80;;;;;;5031285;28;20248;-70
2023/03/25 09:13:42;;;;;;;2.65;0.82;;;18.10;73.70;;;;;;5031517;28;20209;-68
2023/03/25 09:16:30;;;;;;;2.33;0.77;;;18.10;73.70;;;;;;5031186;28;20691;-68
2023/03/25 09:19:19;;;;;;;2.55;0.80;;;18.10;73.50;;;;;;5031567;28;20329;-70
2023/03/25 09:22:07;;;;;;;2.38;0.85;;;18.10;73.60;;;;;;5031119;28;20195;-71
2023/03/25 09:24:55;;;;;;;108.63;13.10;;;18.10;74.00;;;;;;5031133;28;20198;-73
2023/03/25 09:27:45;;;;;;;6.90;1.60;;;18.30;84.50;;;;;;5031914;28;20574;-71
2023/03/25 09:30:33;;;;;;;1.67;0.82;;;18.10;72.50;;;;;;5030750;28;20230;-70
2023/03/25 09:33:21;;;;;;;2.90;1.02;;;18.10;73.30;;;;;;5030933;28;20223;-73
2023/03/25 09:36:10;;;;;;;0.90;0.70;;;18.10;73.10;;;;;;5031509;28;20212;-71
2023/03/25 09:38:58;;;;;;;4.13;0.70;;;18.20;73.30;;;;;;5033650;28;20218;-70
2023/03/25 09:42:01;;;;;;;5.45;0.80;;;18.20;73.30;;;;;;5034176;28;20282;-69
2023/03/25 09:44:58;;;;;;;2.90;1.73;;;18.20;73.20;;;;;;5034435;28;20289;-72
2023/03/25 09:48:02;;;;;;;2.42;0.73;;;18.20;73.00;;;;;;5034924;28;20712;-69
2023/03/25 09:50:50;;;;;;;0.80;0.70;;;18.20;73.10;;;;;;5034005;28;20255;-72
2023/03/25 09:53:45;;;;;;;2.08;0.60;;;18.20;71.80;;;;;;5033587;28;20228;-72
2023/03/25 09:56:37;;;;;;;8.65;0.88;;;18.20;72.40;;;;;;5035941;28;20198;-70
2023/03/25 09:59:39;;;;;;;1.65;0.60;;;18.20;71.90;;;;;;5052995;28;20225;-68
2023/03/25 10:02:36;;;;;;;2.05;0.70;;;18.20;71.80;;;;;;5054000;28;20675;-68
2023/03/25 10:05:48;;;;;;;1.15;0.70;;;18.20;71.20;;;;;;5054030;28;20279;-70
2023/03/25 10:08:46;;;;;;;2.25;0.60;;;18.20;71.90;;;;;;5054034;28;20719;-70
2023/03/25 10:11:42;;;;;;;0.70;0.60;;;18.20;72.40;;;;;;5053714;28;20202;-72
2023/03/25 10:14:36;;;;;;;5.50;1.25;;;18.20;72.50;;;;;;5053780;28;20201;-66
2023/03/25 10:17:30;;;;;;;4.18;0.95;;;18.20;71.80;;;;;;5053602;28;20232;-69
2023/03/25 10:20:37;;;;;;;1.13;0.70;;;18.30;71.30;;;;;;5054106;28;20217;-70
2023/03/25 10:23:34;;;;;;;1.90;1.15;;;18.20;72.50;;;;;;5053899;28;20194;-72
2023/03/25 10:26:27;;;;;;;0.95;0.80;;;18.20;72.90;;;;;;5054162;28;20212;-72
2023/03/25 10:29:20;;;;;;;3.30;0.70;;;18.20;73.50;;;;;;5053439;28;20689;-73
2023/03/25 10:32:17;;;;;;;10.73;1.27;;;18.30;72.70;;;;;;5052804;28;20295;-71
2023/03/25 10:35:09;;;;;;;3.00;1.15;;;18.30;72.10;;;;;;5053259;28;20336;-70
2023/03/25 10:38:02;;;;;;;3.33;0.95;;;18.30;72.60;;;;;;5052654;28;20272;-69
2023/03/25 10:41:11;;;;;;;2.00;0.70;;;18.20;71.90;;;;;;5052498;28;20340;-72
2023/03/25 10:43:59;;;;;;;5.35;0.98;;;18.30;72.20;;;;;;5053789;28;20201;-71
2023/03/25 10:46:52;;;;;;;0.77;0.63;;;18.30;72.50;;;;;;5052722;28;20257;-71
2023/03/25 10:49:42;;;;;;;2.70;0.70;;;18.20;72.10;;;;;;5053581;28;20296;-70
2023/03/25 10:52:31;;;;;;;0.80;0.60;;;18.30;72.30;;;;;;5053031;28;20681;-71
2023/03/25 10:55:25;;;;;;;2.78;0.70;;;18.30;73.30;;;;;;5053926;28;20211;-70
2023/03/25 10:58:17;;;;;;;0.73;0.73;;;18.30;72.60;;;;;;5037733;28;20257;-72
2023/03/25 11:01:11;;;;;;;1.00;0.60;;;18.30;72.70;;;;;;5032747;28;20292;-69
2023/03/25 11:04:02;;;;;;;2.92;0.80;;;18.30;72.00;;;;;;5032270;28;20194;-68
2023/03/25 11:06:54;;;;;;;2.70;0.80;;;18.30;72.80;;;;;;5032946;28;20280;-71
2023/03/25 11:09:42;;;;;;;0.82;0.80;;;18.40;72.50;;;;;;5032747;28;20234;-69
2023/03/25 11:12:32;;;;;;;2.40;0.70;;;18.30;72.10;;;;;;5032532;28;20305;-67
2023/03/25 11:15:33;;;;;;;2.15;0.60;;;18.40;72.20;;;;;;5032698;28;20202;-68
2023/03/25 11:18:26;;;;;;;0.70;0.70;;;18.30;71.30;;;;;;5054280;22;20320;-65
2023/03/25 11:21:15;;;;;;;1.42;0.60;;;18.30;71.70;;;;;;5013892;28;20683;-64
2023/03/25 11:24:06;;;;;;;0.70;0.70;;;18.30;72.10;;;;;;5014895;28;20293;-64
2023/03/25 11:26:54;;;;;;;1.45;0.60;;;18.30;72.30;;;;;;5019145;28;20258;-65
2023/03/25 11:29:51;;;;;;;0.60;0.60;;;18.30;73.50;;;;;;5031768;28;20224;-64
2023/03/25 11:32:40;;;;;;;1.05;0.95;;;18.30;73.50;;;;;;5033310;28;20860;-65
2023/03/25 11:35:33;;;;;;;2.25;0.93;;;18.30;73.50;;;;;;5033740;28;20260;-65
2023/03/25 11:38:23;;;;;;;3.17;0.60;;;18.30;73.40;;;;;;5033377;28;20329;-65
2023/03/25 11:41:14;;;;;;;0.68;0.60;;;18.30;73.10;;;;;;5033433;28;20689;-65
2023/03/25 11:44:04;;;;;;;1.45;0.70;;;18.30;72.70;;;;;;5033659;28;20637;-65
2023/03/25 11:46:56;;;;;;;2.45;0.60;;;18.30;72.70;;;;;;5031915;28;20198;-65
2023/03/25 11:49:49;;;;;;;1.08;0.70;;;18.30;72.80;;;;;;5033005;28;20737;-64
2023/03/25 11:52:41;;;;;;;2.33;0.70;;;18.30;72.80;;;;;;5033241;28;20233;-63
2023/03/25 11:55:36;;;;;;;0.85;0.60;;;18.40;72.40;;;;;;5032800;28;20292;-65
2023/03/25 11:58:29;;;;;;;0.90;0.55;;;18.40;72.70;;;;;;5049942;28;20304;-65
2023/03/25 12:01:24;;;;;;;1.00;0.80;;;18.40;72.20;;;;;;5052309;28;20232;-65
2023/03/25 12:04:17;;;;;;;0.77;0.63;;;18.50;73.00;;;;;;5052638;28;20189;-64
2023/03/25 12:07:08;;;;;;;0.70;0.52;;;18.50;72.60;;;;;;5052754;28;20595;-65
2023/03/25 12:09:58;;;;;;;0.60;0.60;;;18.40;71.60;;;;;;5052159;28;20228;-64
2023/03/25 12:12:56;;;;;;;2.05;0.68;;;18.40;71.80;;;;;;5052139;28;20296;-65
2023/03/25 12:15:54;;;;;;;1.40;0.63;;;18.40;72.20;;;;;;5052665;28;20201;-65
2023/03/25 12:18:53;;;;;;;0.95;0.93;;;18.40;72.30;;;;;;5052404;28;20236;-65
2023/03/25 12:21:58;;;;;;;0.50;0.50;;;18.40;72.10;;;;;;5052183;28;20205;-65
2023/03/25 12:25:06;;;;;;;1.63;0.60;;;18.40;72.20;;;;;;5051782;28;20203;-65
2023/03/25 12:28:05;;;;;;;1.92;0.60;;;18.40;72.50;;;;;;5052339;28;20579;-64
2023/03/25 12:31:01;;;;;;;2.17;0.60;;;18.40;72.30;;;;;;5052130;28;20280;-65
2023/03/25 12:33:58;;;;;;;1.17;0.60;;;18.40;72.10;;;;;;5052662;28;20616;-65
2023/03/25 12:37:00;;;;;;;0.50;0.50;;;18.40;72.80;;;;;;5052766;28;20681;-64
2023/03/25 12:39:59;;;;;;;2.78;0.70;;;18.40;72.60;;;;;;5057000;28;20308;-63
2023/03/25 12:43:03;;;;;;;0.70;0.60;;;18.40;73.10;;;;;;5067393;28;20279;-65
2023/03/25 12:46:04;;;;;;;2.05;0.60;;;18.40;72.20;;;;;;5057882;28;20205;-65
2023/03/25 12:49:03;;;;;;;2.40;0.70;;;18.40;71.80;;;;;;5052420;28;20219;-65
2023/03/25 12:52:03;;;;;;;1.25;0.50;;;18.40;71.60;;;;;;5052680;28;20700;-65
2023/03/25 12:55:03;;;;;;;3.70;0.73;;;18.40;72.10;;;;;;5052349;28;20217;-65
2023/03/25 12:58:09;;;;;;;2.72;0.50;;;18.40;71.90;;;;;;5038988;28;20202;-65
2023/03/25 13:01:04;;;;;;;0.60;0.60;;;18.50;72.20;;;;;;5031967;28;20590;-64
2023/03/25 13:04:07;;;;;;;1.35;0.80;;;18.50;72.90;;;;;;5031040;28;20202;-65
2023/03/25 13:07:01;;;;;;;0.70;0.60;;;18.50;73.40;;;;;;5031820;28;20682;-65
2023/03/25 13:09:59;;;;;;;5.57;0.90;;;18.40;73.30;;;;;;5031750;28;20225;-65
2023/03/25 13:12:50;;;;;;;3.65;0.65;;;18.50;73.80;;;;;;5034387;28;20236;-66
2023/03/25 13:15:42;;;;;;;0.50;0.50;;;18.50;74.40;;;;;;5034950;28;20392;-65
2023/03/25 13:18:35;;;;;;;1.77;0.88;;;18.40;75.00;;;;;;5035382;28;20272;-65
2023/03/25 13:21:26;;;;;;;1.13;0.52;;;18.40;75.30;;;;;;5036497;28;20332;-64
2023/03/25 13:24:20;;;;;;;0.60;0.60;;;18.40;75.50;;;;;;5036520;28;20197;-65
2023/03/25 13:27:12;;;;;;;0.63;0.50;;;18.40;75.50;;;;;;5035489;28;20252;-64
2023/03/25 13:30:03;;;;;;;0.95;0.70;;;18.30;75.50;;;;;;5036119;28;20292;-64
2023/03/25 13:32:56;;;;;;;1.02;0.50;;;18.30;75.50;;;;;;5035363;28;20214;-65
2023/03/25 13:35:49;;;;;;;1.17;0.60;;;18.30;75.40;;;;;;5036475;28;20213;-64
2023/03/25 13:38:45;;;;;;;0.85;0.60;;;18.30;75.40;;;;;;5036011;28;20344;-65
2023/03/25 13:41:41;;;;;;;0.73;0.70;;;18.30;75.70;;;;;;5036210;28;20282;-65
2023/03/25 13:44:35;;;;;;;0.50;0.50;;;18.30;75.90;;;;;;5035110;28;20197;-64
2023/03/25 13:47:29;;;;;;;1.20;0.52;;;18.30;76.20;;;;;;5036590;28;20214;-65
2023/03/25 13:50:24;;;;;;;0.70;0.50;;;18.30;76.20;;;;;;5036250;28;20307;-65
2023/03/25 13:53:19;;;;;;;0.70;0.60;;;18.20;76.30;;;;;;5034948;28;20308;-63
2023/03/25 13:56:32;;;;;;;1.15;0.60;;;18.20;76.30;;;;;;5035437;28;20237;-65
2023/03/25 14:00:06;;;;;;;0.70;0.50;;;18.20;76.30;;;;;;5015832;28;20269;-65
2023/03/25 14:03:10;;;;;;;0.88;0.70;;;18.20;76.10;;;;;;4955474;29;20208;-65
2023/03/25 14:06:23;;;;;;;0.50;0.50;;;18.20;76.10;;;;;;4955557;29;20204;-65
2023/03/25 14:09:42;;;;;;;0.70;0.55;;;18.30;76.10;;;;;;5017277;28;20215;-65
2023/03/25 14:12:33;;;;;;;0.60;0.50;;;18.20;75.90;;;;;;5016126;28;20317;-66
2023/03/25 14:15:26;;;;;;;0.68;0.57;;;18.30;75.80;;;;;;5016212;28;20233;-65
2023/03/25 14:18:18;;;;;;;0.57;0.57;;;18.50;91.20;;;;;;5016256;28;20253;-64
2023/03/25 14:21:15;;;;;;;0.60;0.60;;;18.30;75.70;;;;;;5015916;28;20209;-64
2023/03/25 14:24:06;;;;;;;1.25;0.70;;;18.30;75.60;;;;;;5014953;28;20610;-65
2023/03/25 14:27:00;;;;;;;0.82;0.60;;;18.40;75.70;;;;;;5016554;28;20281;-65
2023/03/25 14:29:55;;;;;;;0.50;0.50;;;18.40;76.00;;;;;;5015612;28;20225;-65
2023/03/25 14:32:45;;;;;;;1.10;0.60;;;18.40;76.20;;;;;;5014251;28;20253;-65
2023/03/25 14:35:57;;;;;;;0.70;0.70;;;18.40;76.10;;;;;;5015936;28;20225;-65
2023/03/25 14:38:53;;;;;;;0.70;0.50;;;18.30;76.10;;;;;;5016384;28;20222;-65
2023/03/25 14:41:59;;;;;;;0.70;0.60;;;18.30;76.10;;;;;;5014900;28;20579;-65
2023/03/25 14:44:58;;;;;;;0.60;0.60;;;18.30;76.10;;;;;;5015466;28;20304;-65
2023/03/25 14:47:53;;;;;;;0.50;0.50;;;18.30;76.20;;;;;;5013821;28;20230;-65
2023/03/25 14:50:41;;;;;;;0.73;0.50;;;18.30;76.40;;;;;;5014922;28;20367;-65
2023/03/25 14:53:30;;;;;;;0.60;0.60;;;18.30;76.60;;;;;;5014594;28;20627;-64
2023/03/25 14:56:21;;;;;;;0.73;0.70;;;18.30;76.60;;;;;;5013241;28;20815;-65
2023/03/25 14:59:15;;;;;;;0.90;0.60;;;18.30;76.50;;;;;;5014234;28;20582;-65